Time;durP1;ratioP1;P1;durP2;ratioP2;P2;SDS_P1;SDS_P2;PMS_P1;PMS_P2;Temp;Humidity;BMP_temperature;BMP_pressure;BME280_temperature;BME280_humidity;BME280_pressure;Samples;Min_cycle;Max_cycle;Signal;HPM_P1;HPM_P2
2021/12/05 00:28:05;;;;;;;8.02;6.78;;;23.10;58.60;;;;;;31714404;28;20111;-53
2021/12/05 01:13:56;;;;;;;1.50;1.38;;;22.90;59.10;;;;;;31716402;28;20040;-49
2021/12/05 02:30:05;;;;;;;0.20;0.20;;;23.00;59.30;;;;;;31714338;28;20061;-48
2021/12/05 02:45:09;;;;;;;0.20;0.20;;;23.00;59.20;;;;;;31685821;28;20040;-49
2021/12/05 03:00:19;;;;;;;0.13;0.13;;;22.90;59.50;;;;;;31660230;28;20041;-47
2021/12/05 03:15:21;;;;;;;0.30;0.22;;;23.10;59.80;;;;;;31594148;28;20049;-51
2021/12/05 03:30:25;;;;;;;0.10;0.10;;;23.30;59.50;;;;;;31640389;28;20108;-48
2021/12/05 03:45:33;;;;;;;0.20;0.10;;;23.20;59.30;;;;;;31658067;28;20060;-44
2021/12/05 04:00:39;;;;;;;0.10;0.10;;;23.00;59.70;;;;;;31623322;28;20037;-46
2021/12/05 04:15:43;;;;;;;15.27;0.20;;;22.90;59.80;;;;;;31541797;28;20049;-44
2021/12/05 04:30:46;;;;;;;0.50;0.10;;;22.90;59.70;;;;;;31618958;28;20052;-44
2021/12/05 04:45:48;;;;;;;9.65;0.20;;;22.80;60.10;;;;;;31621654;28;20040;-48
2021/12/05 05:00:54;;;;;;;0.13;0.10;;;23.20;59.80;;;;;;31620592;28;20064;-45
2021/12/05 05:15:57;;;;;;;0.10;0.10;;;23.30;60.00;;;;;;31631573;28;20056;-45
2021/12/05 05:46:23;;;;;;;0.10;0.10;;;23.00;60.10;;;;;;31610474;28;20049;-45
2021/12/05 06:16:37;;;;;;;0.13;0.13;;;22.90;59.90;;;;;;31556320;28;20064;-51
2021/12/05 06:31:53;;;;;;;0.10;0.10;;;23.00;60.50;;;;;;31621724;28;20056;-47
2021/12/05 06:46:56;;;;;;;0.10;0.10;;;23.30;60.60;;;;;;31612643;28;20041;-43
2021/12/05 07:01:58;;;;;;;1.98;1.00;;;23.30;59.90;;;;;;31518286;28;20048;-46
2021/12/05 07:17:08;;;;;;;2.70;1.33;;;23.00;60.40;;;;;;31622512;28;20052;-47
2021/12/05 07:47:32;;;;;;;6.63;3.17;;;22.90;60.50;;;;;;31579026;28;20558;-48
2021/12/05 08:17:58;;;;;;;19.50;6.28;;;22.90;57.30;;;;;;31591522;28;20083;-47
2021/12/05 10:36:08;;;;;;;21.77;5.45;;;23.00;59.90;;;;;;31580167;28;20048;-46
2021/12/05 10:51:16;;;;;;;15.60;5.18;;;22.90;60.20;;;;;;31626061;28;20056;-44
2021/12/05 11:06:25;;;;;;;14.98;4.60;;;22.80;60.40;;;;;;31615182;28;20040;-49
2021/12/05 11:21:34;;;;;;;13.57;5.17;;;22.80;60.40;;;;;;31658522;28;20049;-46
2021/12/05 11:36:38;;;;;;;9.70;4.43;;;22.70;61.80;;;;;;31607673;28;20094;-46
2021/12/05 11:51:46;;;;;;;15.98;5.68;;;23.00;61.30;;;;;;31194487;28;10000139;-47
2021/12/05 12:07:06;;;;;;;13.93;6.40;;;23.20;61.50;;;;;;31602218;28;20032;-50
2021/12/05 12:22:09;;;;;;;11.13;6.70;;;22.90;57.60;;;;;;31541264;28;20082;-45
2021/12/05 12:37:13;;;;;;;8.32;6.35;;;22.50;57.30;;;;;;31607966;28;20100;-48
2021/12/05 12:52:18;;;;;;;12.75;7.60;;;22.40;56.50;;;;;;31616475;28;20132;-51
2021/12/05 13:23:13;;;;;;;7.17;6.27;;;22.40;53.80;;;;;;31586563;28;20041;-52
2021/12/05 13:38:32;;;;;;;6.90;5.45;;;22.20;54.40;;;;;;31556143;28;20064;-52
2021/12/05 13:53:42;;;;;;;8.47;4.23;;;22.70;55.50;;;;;;31589389;28;20104;-59
2021/12/05 14:08:44;;;;;;;11.20;5.85;;;22.90;56.20;;;;;;31578101;28;20539;-61
2021/12/05 14:23:54;;;;;;;19.30;11.20;;;22.90;56.30;;;;;;31660164;28;20048;-62
2021/12/05 14:39:18;;;;;;;17.10;8.80;;;22.60;55.70;;;;;;31634348;28;20146;-56
2021/12/05 14:54:25;;;;;;;11.45;9.15;;;22.80;55.30;;;;;;31655719;28;20044;-50
2021/12/05 15:09:37;;;;;;;15.02;12.98;;;22.70;54.90;;;;;;31692358;28;20103;-58
2021/12/05 15:24:48;;;;;;;14.90;12.10;;;22.50;53.00;;;;;;31627253;28;20112;-57
2021/12/05 15:39:52;;;;;;;32.93;25.70;;;22.20;53.30;;;;;;31286358;28;9999832;-54
2021/12/05 15:54:56;;;;;;;20.20;15.65;;;22.60;51.00;;;;;;31593876;28;20357;-50
2021/12/05 16:10:13;;;;;;;15.38;13.60;;;22.90;52.50;;;;;;31624943;28;20096;-50
2021/12/05 16:25:17;;;;;;;17.38;14.13;;;22.80;52.40;;;;;;31600034;28;20053;-50
2021/12/05 16:40:20;;;;;;;14.27;12.10;;;22.80;52.80;;;;;;31715882;28;20044;-48
2021/12/05 16:55:27;;;;;;;15.50;11.57;;;22.70;53.70;;;;;;31614060;28;20100;-50
2021/12/05 17:10:37;;;;;;;15.13;10.65;;;22.60;53.60;;;;;;31547341;28;20525;-50
2021/12/05 17:25:42;;;;;;;12.82;9.50;;;22.60;53.80;;;;;;31636477;28;20052;-54
2021/12/05 17:40:44;;;;;;;11.75;8.88;;;22.90;53.70;;;;;;31606577;28;20064;-52
2021/12/05 17:55:48;;;;;;;12.15;8.15;;;23.00;52.50;;;;;;31614528;28;20073;-57
2021/12/05 18:10:55;;;;;;;11.07;8.45;;;22.90;53.60;;;;;;31608567;28;20119;-60
2021/12/05 18:25:58;;;;;;;19.52;7.78;;;22.80;53.80;;;;;;31627187;28;20125;-50
2021/12/05 18:41:07;;;;;;;16.80;7.57;;;22.60;54.40;;;;;;31557445;28;20127;-49
2021/12/05 18:56:10;;;;;;;25.50;7.93;;;22.50;55.30;;;;;;31265844;28;10000080;-52
2021/12/05 19:26:33;;;;;;;20.75;9.43;;;22.50;55.80;;;;;;31565709;28;20060;-53
2021/12/05 19:41:36;;;;;;;12.68;8.88;;;22.50;56.80;;;;;;31684247;28;20032;-52
2021/12/05 19:56:42;;;;;;;13.77;8.27;;;22.80;57.50;;;;;;31617182;28;20109;-61
2021/12/05 20:11:46;;;;;;;14.30;8.10;;;23.10;57.30;;;;;;31576718;28;20045;-57
2021/12/05 20:26:50;;;;;;;14.10;7.88;;;23.10;56.80;;;;;;31602087;28;20097;-51
2021/12/05 20:41:54;;;;;;;10.02;6.38;;;23.10;56.90;;;;;;31583574;28;20040;-54
2021/12/05 20:56:56;;;;;;;20.90;14.63;;;23.10;56.90;;;;;;31576187;28;20048;-54
2021/12/05 21:11:58;;;;;;;20.67;12.98;;;22.90;56.70;;;;;;31600566;28;20040;-49
2021/12/05 21:27:00;;;;;;;20.05;12.57;;;22.90;56.90;;;;;;31652036;28;20049;-46
2021/12/05 21:42:03;;;;;;;17.65;11.48;;;22.90;57.20;;;;;;31608635;28;20064;-42
2021/12/05 21:57:05;;;;;;;13.63;10.90;;;22.90;57.50;;;;;;31523920;28;20104;-46
2021/12/05 22:12:08;;;;;;;13.32;9.80;;;22.90;57.70;;;;;;31526087;28;20073;-49
2021/12/05 22:27:12;;;;;;;17.95;12.88;;;22.80;58.00;;;;;;31716454;28;20041;-47
2021/12/05 22:42:14;;;;;;;13.32;9.15;;;22.70;57.60;;;;;;31559711;28;20082;-48
2021/12/05 22:57:16;;;;;;;7.10;5.55;;;23.20;57.10;;;;;;31638702;28;20178;-45
2021/12/05 23:12:18;;;;;;;4.40;3.20;;;23.40;57.10;;;;;;31591155;28;20053;-51
2021/12/05 23:27:20;;;;;;;3.97;3.15;;;23.30;57.50;;;;;;31638749;28;20056;-45
2021/12/05 23:42:36;;;;;;;3.47;2.33;;;23.20;57.30;;;;;;31644583;28;20051;-45
2021/12/05 23:57:40;;;;;;;1.48;1.38;;;23.10;57.40;;;;;;31634250;28;20099;-44
